Aeroporto :
LOGIN :

Iscrizione | Disclaimer

   EN    FR    IT 

 










Sommario :    VFR   VFR Marginale   IFR   IFR Intensivo   IFR Molto Intensivo
Visibilità : 
Base nubi : 
>= 8 km
>= 3000ft
5 / 8 km
1000 / 3000 ft
1500m / 5 km
500 / 1000 ft
800 / 1500m
200 / 500 ft
< 800m
< 200 ft
Simboli :   Temporali  Nebbia  Neve Forte  Precipitazioni Forti  Vento > 20 kt
SIGMETs :   Varie  Temporali  Ghiacco  Turbolenza  Onda orograficha  Ceneri Vulcaniche






- Altitudine del aeroporto : 243 ft
- Codice IATA : HOV


ENOV - Ørsta-Volda , Hovden

ULTIMO METAR :
  • 230720Z VRB02KT 9999 -RA FEW030 BKN037 11/07 Q1004 RMK WIND 2175FT 18020KT

METARs OBSOLETI :
  • 230650Z VRB02KT 9999 -RA BKN038 10/08 Q1004 RMK WIND 2175FT 18021KT
  • 230620Z VRB02KT 9999 -RA BKN038 09/08 Q1004 RMK WIND 2175FT 18021KT
  • 230550Z VRB05KT 9999 -RA SCT036 BKN044 10/08 Q1004 RMK WIND 2175FT 19022KT
  • 230450Z VRB02KT 9999 -RA SCT036 BKN043 08/07 Q1004 RMK WIND 2175FT 19021KT

TAF N/A



MetMap, La meteo Aeronautica in un colpo d'occhio ! - Copyright ORBIFLY Dicembre 2007 - Disclaimer

ORBIFLY MET'MAP TEAM :

Programmazione e sviluppo : Alexandra Zaïnal
Concezione e sviluppo : Baudouin d'Aumeries
Co-Programmazione e sviluppo : Marc-Olivier Méhu
Supporto tecnico e logistico : Manuel Goepfert
Aiuto per la traduzione : Arnaldo La Scala

Contatto : metmap@orbifly.com




FONTI E CREDITI :

   NOAA